Time;durP1;ratioP1;P1;durP2;ratioP2;P2;SDS_P1;SDS_P2;PMS_P1;PMS_P2;Temp;Humidity;BMP_temperature;BMP_pressure;BME280_temperature;BME280_humidity;BME280_pressure;Samples;Min_cycle;Max_cycle;Signal;HPM_P1;HPM_P2
2021/11/13 00:01:12;;;;;;;49.00;16.92;;;;;;;1.25;100.00;99042.81;4991426;28;20042;-81
2021/11/13 00:03:39;;;;;;;71.13;16.88;;;;;;;1.20;100.00;99032.47;4991884;28;20046;-81
2021/11/13 00:06:06;;;;;;;37.22;15.82;;;;;;;1.34;100.00;99038.50;4990239;28;20059;-81
2021/11/13 00:08:34;;;;;;;37.55;17.15;;;;;;;1.37;100.00;99047.16;4991126;28;20540;-81
2021/11/13 00:11:01;;;;;;;43.72;17.85;;;;;;;1.35;100.00;99042.88;4991819;28;20084;-81
2021/11/13 00:13:28;;;;;;;52.53;19.73;;;;;;;1.28;100.00;99034.53;4991451;28;20053;-81
2021/11/13 00:15:57;;;;;;;39.33;16.63;;;;;;;1.44;100.00;99044.78;4992033;28;20075;-81
2021/11/13 00:18:24;;;;;;;40.08;18.05;;;;;;;1.26;100.00;99032.97;5000931;28;20058;-81
2021/11/13 00:20:51;;;;;;;35.95;16.80;;;;;;;1.38;100.00;99034.59;4995107;28;20480;-81
2021/11/13 00:23:19;;;;;;;35.30;16.17;;;;;;;1.45;100.00;99041.13;4993970;28;20387;-81
2021/11/13 00:25:48;;;;;;;30.45;16.55;;;;;;;1.43;100.00;99043.09;4999071;28;20413;-81
2021/11/13 00:28:15;;;;;;;45.80;17.45;;;;;;;1.62;100.00;99046.91;4998538;28;20046;-82
2021/11/13 00:30:43;;;;;;;48.15;18.40;;;;;;;1.63;100.00;99038.72;4994930;28;20054;-81
2021/11/13 00:33:10;;;;;;;57.03;16.90;;;;;;;1.55;100.00;99036.69;4995200;28;20051;-81
2021/11/13 00:35:37;;;;;;;43.13;16.98;;;;;;;1.29;100.00;99024.66;4995182;28;20050;-81
2021/11/13 00:38:04;;;;;;;39.67;17.33;;;;;;;1.41;100.00;99053.09;4993999;28;20063;-81
2021/11/13 00:40:31;;;;;;;41.60;17.75;;;;;;;1.38;100.00;99048.00;4987545;28;20038;-81
2021/11/13 00:43:00;;;;;;;36.10;18.05;;;;;;;1.42;100.00;99044.06;4993178;28;20101;-81
2021/11/13 00:45:27;;;;;;;61.10;19.25;;;;;;;1.36;100.00;99037.41;4995271;28;20510;-81
2021/11/13 00:47:54;;;;;;;68.50;18.67;;;;;;;1.46;100.00;99039.28;5001451;28;20042;-81
2021/11/13 00:50:21;;;;;;;81.20;19.67;;;;;;;1.21;100.00;99039.53;4996834;28;20565;-81
2021/11/13 00:52:48;;;;;;;90.00;19.33;;;;;;;1.23;100.00;99034.91;4994485;28;20046;-81
2021/11/13 00:55:18;;;;;;;77.38;19.42;;;;;;;1.20;100.00;99027.13;4993642;28;20046;-81
2021/11/13 00:57:45;;;;;;;;;;;;;;;1.38;100.00;99024.72;4995866;28;20109;-81
2021/11/13 01:00:17;;;;;;;80.10;18.25;;;;;;;1.17;100.00;99005.13;4994891;28;19921;-81
2021/11/13 01:02:44;;;;;;;107.60;20.63;;;;;;;1.34;100.00;99025.97;4992782;28;20046;-80
2021/11/13 01:05:11;;;;;;;89.38;18.38;;;;;;;1.13;100.00;99009.88;4994636;28;20046;-85
2021/11/13 01:07:38;;;;;;;92.38;19.05;;;;;;;1.24;100.00;99049.16;4989453;28;20414;-85
2021/11/13 01:10:08;;;;;;;90.55;21.33;;;;;;;1.22;100.00;99067.19;5006000;28;20058;-81
2021/11/13 01:12:35;;;;;;;56.38;18.85;;;;;;;1.23;100.00;99063.50;4995478;28;20076;-81
2021/11/13 01:15:03;;;;;;;77.63;18.08;;;;;;;1.21;100.00;99073.50;4994434;28;20569;-81
2021/11/13 01:17:31;;;;;;;76.95;19.77;;;;;;;1.25;100.00;99074.97;4993853;28;20504;-81
2021/11/13 01:19:58;;;;;;;68.93;17.98;;;;;;;1.35;100.00;99072.34;4994139;28;20105;-81
2021/11/13 01:22:28;;;;;;;76.68;17.88;;;;;;;1.27;100.00;99077.50;4993930;28;20062;-81
2021/11/13 01:24:54;;;;;;;62.15;16.80;;;;;;;1.34;100.00;99076.88;4994725;28;20057;-81
2021/11/13 01:27:21;;;;;;;111.38;17.77;;;;;;;1.40;100.00;99083.53;4993887;28;20046;-81
2021/11/13 01:29:48;;;;;;;65.15;18.23;;;;;;;1.29;100.00;99078.22;4989585;28;20075;-81
2021/11/13 01:32:16;;;;;;;59.97;19.55;;;;;;;1.26;100.00;99076.66;4993969;28;20085;-81
2021/11/13 01:34:44;;;;;;;75.70;17.23;;;;;;;1.27;100.00;99090.91;4993808;28;20402;-82
2021/11/13 01:37:11;;;;;;;63.33;19.00;;;;;;;1.39;100.00;99080.00;4993607;28;20102;-81
2021/11/13 01:39:38;;;;;;;50.13;18.42;;;;;;;1.34;100.00;99087.59;4994484;28;20153;-81
2021/11/13 01:42:06;;;;;;;54.25;16.65;;;;;;;1.33;100.00;99085.88;4993563;28;20058;-81
2021/11/13 01:44:36;;;;;;;63.38;17.75;;;;;;;1.13;100.00;99068.78;4992691;28;20042;-81
2021/11/13 01:47:05;;;;;;;53.08;16.00;;;;;;;1.20;100.00;99075.31;4991324;28;20050;-81
2021/11/13 01:49:31;;;;;;;41.55;18.08;;;;;;;1.21;100.00;99079.72;4996913;28;20050;-81
2021/11/13 01:52:00;;;;;;;48.58;16.02;;;;;;;1.07;100.00;99069.31;5005267;28;20117;-81
2021/11/13 01:54:28;;;;;;;33.05;15.63;;;;;;;1.09;100.00;99058.47;4996317;28;20124;-81
2021/11/13 01:56:55;;;;;;;46.05;16.20;;;;;;;0.98;100.00;99065.56;5002414;28;20414;-81
2021/11/13 01:59:24;;;;;;;40.53;15.88;;;;;;;0.95;100.00;99043.53;4993791;28;20046;-81
2021/11/13 02:01:51;;;;;;;48.65;14.70;;;;;;;0.98;100.00;99052.16;4993854;28;20085;-81
2021/11/13 02:04:18;;;;;;;43.53;14.95;;;;;;;0.92;100.00;99043.78;4994243;28;20052;-81
2021/11/13 02:06:45;;;;;;;59.22;16.80;;;;;;;0.93;100.00;99057.03;4993658;28;20042;-81
2021/11/13 02:09:13;;;;;;;45.80;15.45;;;;;;;0.97;100.00;99052.28;4992885;28;20050;-82
2021/11/13 02:11:40;;;;;;;46.75;15.68;;;;;;;0.88;100.00;99054.75;4993248;28;20046;-81
2021/11/13 02:14:06;;;;;;;28.52;14.63;;;;;;;0.82;100.00;99057.09;4992736;28;20054;-81
2021/11/13 02:16:33;;;;;;;38.15;14.93;;;;;;;0.82;100.00;99051.72;4993648;28;20093;-81
2021/11/13 02:19:01;;;;;;;47.00;14.40;;;;;;;0.84;100.00;99057.78;4992099;28;20051;-81
2021/11/13 02:21:29;;;;;;;36.58;13.27;;;;;;;0.78;100.00;99060.97;4992910;28;20066;-81
2021/11/13 02:23:57;;;;;;;33.45;12.70;;;;;;;0.74;100.00;99068.41;4990843;28;20466;-82
2021/11/13 02:26:25;;;;;;;30.50;14.80;;;;;;;0.75;100.00;99071.94;4993432;28;20043;-81
2021/11/13 02:28:54;;;;;;;34.67;13.52;;;;;;;0.70;100.00;99062.44;4992046;28;20121;-82
2021/11/13 02:31:31;;;;;;;41.95;15.45;;;;;;;0.72;100.00;99070.34;4993564;28;20062;-81
2021/11/13 02:33:58;;;;;;;32.42;13.88;;;;;;;0.76;100.00;99079.84;4993168;28;20090;-82
2021/11/13 02:36:24;;;;;;;41.90;14.60;;;;;;;0.81;100.00;99085.69;4990913;28;20058;-81
2021/11/13 02:38:56;;;;;;;38.85;14.18;;;;;;;0.69;100.00;99054.53;4991746;28;20050;-81
2021/11/13 02:41:26;;;;;;;41.47;14.73;;;;;;;0.84;100.00;99084.56;4992136;28;20614;-81
2021/11/13 02:44:07;;;;;;;35.22;14.50;;;;;;;0.86;100.00;99077.28;4990437;28;20050;-81
2021/11/13 02:46:34;;;;;;;24.70;12.93;;;;;;;0.95;100.00;99056.91;4992136;28;20494;-81
2021/11/13 02:49:02;;;;;;;28.25;13.85;;;;;;;0.82;100.00;99039.19;5005205;28;20494;-81
2021/11/13 02:51:29;;;;;;;31.58;13.40;;;;;;;0.87;100.00;99058.41;4991699;28;20093;-81
2021/11/13 02:54:01;;;;;;;44.75;13.05;;;;;;;0.84;100.00;99039.94;4992799;28;20054;-81
2021/11/13 02:56:28;;;;;;;39.78;13.63;;;;;;;1.02;100.00;99047.41;4994429;28;20109;-81
2021/11/13 02:58:55;;;;;;;27.38;12.63;;;;;;;0.81;100.00;99039.31;5011372;28;20058;-81
2021/11/13 03:01:28;;;;;;;57.83;16.35;;;;;;;0.86;100.00;99058.53;4992582;28;20042;-81
2021/11/13 03:03:57;;;;;;;31.55;13.75;;;;;;;0.69;100.00;99034.00;4992495;28;20062;-81
2021/11/13 03:06:24;;;;;;;36.42;13.63;;;;;;;0.75;100.00;99040.66;4992878;28;20054;-81
2021/11/13 03:08:54;;;;;;;54.22;14.65;;;;;;;0.76;100.00;99045.03;4998049;28;20046;-81
2021/11/13 03:11:22;;;;;;;36.30;12.88;;;;;;;1.03;100.00;99063.34;5010757;28;20053;-81
2021/11/13 03:13:52;;;;;;;23.98;13.63;;;;;;;0.94;100.00;99057.91;4994456;28;20050;-81
2021/11/13 03:16:22;;;;;;;28.70;13.25;;;;;;;0.84;100.00;99033.72;4995408;28;20113;-81
2021/11/13 03:18:50;;;;;;;25.95;13.13;;;;;;;1.01;100.00;99062.63;5013890;28;20045;-81
2021/11/13 03:21:17;;;;;;;39.22;13.70;;;;;;;0.96;100.00;99055.94;4996063;28;20490;-81
2021/11/13 03:23:46;;;;;;;24.85;12.80;;;;;;;1.10;100.00;99054.78;4993676;28;20410;-81
2021/11/13 03:26:20;;;;;;;81.32;16.00;;;;;;;0.94;100.00;99052.56;4994432;28;20121;-81
2021/11/13 03:28:51;;;;;;;61.85;15.38;;;;;;;0.91;100.00;99032.22;4994435;28;20058;-81
2021/11/13 03:31:18;;;;;;;37.42;15.20;;;;;;;1.01;100.00;99043.88;5013664;28;20556;-81
2021/11/13 03:33:46;;;;;;;42.22;14.48;;;;;;;1.04;100.00;99043.63;4999196;28;20259;-81
2021/11/13 03:36:16;;;;;;;40.33;15.27;;;;;;;0.99;100.00;99051.16;4993065;28;20050;-81
2021/11/13 03:38:43;;;;;;;;;;;;;;;1.03;100.00;99054.47;4994699;28;20050;-81
2021/11/13 03:41:10;;;;;;;67.45;14.35;;;;;;;1.01;100.00;99054.59;4993923;28;19921;-81
2021/11/13 03:43:38;;;;;;;65.47;16.27;;;;;;;0.91;100.00;99045.63;5001253;28;20564;-81
2021/11/13 03:46:08;;;;;;;54.35;15.30;;;;;;;1.16;100.00;99055.16;5013508;28;20097;-81
2021/11/13 03:48:36;;;;;;;;;;;;;;;1.25;100.00;99058.91;4974798;28;20047;-80
2021/11/13 03:51:03;;;;;;;64.03;17.55;;;;;;;1.11;100.00;99054.66;4978331;28;19973;-81
2021/11/13 03:53:36;;;;;;;54.65;14.82;;;;;;;1.02;100.00;99042.03;4996132;28;20466;-81
2021/11/13 03:56:06;;;;;;;32.90;15.18;;;;;;;1.13;100.00;99050.06;5002940;28;20038;-81
2021/11/13 03:58:33;;;;;;;64.40;17.77;;;;;;;1.12;100.00;99044.81;4998301;28;20058;-80
2021/11/13 04:01:00;;;;;;;38.20;15.50;;;;;;;1.01;100.00;99025.16;4997657;28;20046;-80
2021/11/13 04:03:28;;;;;;;37.53;16.25;;;;;;;1.13;100.00;99047.38;4997465;28;20619;-81
2021/11/13 04:05:55;;;;;;;46.10;15.32;;;;;;;1.18;100.00;99050.50;4997649;28;20478;-81
2021/11/13 04:08:22;;;;;;;46.00;15.77;;;;;;;1.26;100.00;99049.03;4997233;28;20163;-81
2021/11/13 04:10:49;;;;;;;34.75;16.10;;;;;;;1.24;100.00;99041.13;4997703;28;20058;-81
2021/11/13 04:13:16;;;;;;;35.58;16.40;;;;;;;1.21;100.00;99050.25;4997308;28;20050;-81
2021/11/13 04:15:43;;;;;;;30.17;15.82;;;;;;;1.17;100.00;99034.56;5017311;28;20050;-81
2021/11/13 04:18:10;;;;;;;36.50;17.45;;;;;;;1.33;100.00;99034.16;5010698;28;20046;-81
2021/11/13 04:20:38;;;;;;;37.00;18.70;;;;;;;1.32;100.00;99027.91;5016931;28;20552;-81
2021/11/13 04:23:05;;;;;;;33.53;16.52;;;;;;;1.27;100.00;99026.63;5016861;28;20054;-81
2021/11/13 04:25:32;;;;;;;30.30;16.70;;;;;;;1.19;100.00;99025.44;4997333;28;20556;-80
2021/11/13 04:27:59;;;;;;;34.72;17.63;;;;;;;1.19;100.00;99021.88;4997250;28;20050;-80
2021/11/13 04:30:26;;;;;;;35.47;17.10;;;;;;;1.26;100.00;99022.25;5003345;28;20092;-81
2021/11/13 04:32:53;;;;;;;54.10;17.05;;;;;;;1.25;100.00;99016.03;5016668;28;20065;-81
2021/11/13 04:35:23;;;;;;;46.10;18.13;;;;;;;1.26;100.00;99020.41;5016882;28;20100;-81
2021/11/13 04:37:55;;;;;;;47.47;17.70;;;;;;;1.27;100.00;99014.06;5016834;28;20041;-80
2021/11/13 04:40:24;;;;;;;43.25;17.85;;;;;;;1.28;100.00;99006.88;4994141;28;20050;-80
2021/11/13 04:42:51;;;;;;;45.83;18.27;;;;;;;1.27;100.00;99019.44;4991816;28;20113;-81
2021/11/13 04:45:18;;;;;;;42.97;18.73;;;;;;;1.14;100.00;99002.69;5016480;28;20432;-80
2021/11/13 04:47:45;;;;;;;46.13;19.13;;;;;;;1.16;100.00;99015.00;5016428;28;20461;-81
2021/11/13 04:50:16;;;;;;;41.08;19.95;;;;;;;1.29;100.00;99016.63;5016872;28;20101;-81
2021/11/13 04:52:43;;;;;;;54.13;20.85;;;;;;;1.31;100.00;99020.00;4998685;28;20088;-82
2021/11/13 04:55:12;;;;;;;44.45;19.40;;;;;;;1.19;100.00;99008.50;4995702;28;20047;-81
2021/11/13 04:57:39;;;;;;;41.95;19.05;;;;;;;1.23;100.00;99010.81;4996670;28;20383;-82
2021/11/13 05:00:09;;;;;;;37.10;18.67;;;;;;;1.19;100.00;99009.38;4997018;28;20046;-85
2021/11/13 05:02:36;;;;;;;37.15;17.08;;;;;;;1.20;100.00;98994.16;4996440;28;20475;-84
2021/11/13 05:05:03;;;;;;;51.22;18.52;;;;;;;1.24;100.00;99015.19;4996049;28;20042;-82
2021/11/13 05:07:30;;;;;;;33.35;17.77;;;;;;;1.26;100.00;98998.97;4996896;28;20058;-82
2021/11/13 05:09:58;;;;;;;36.70;17.33;;;;;;;1.17;100.00;98999.75;4996676;28;20042;-82
2021/11/13 05:12:26;;;;;;;36.15;18.88;;;;;;;1.24;100.00;99014.34;5000061;28;20512;-81
2021/11/13 05:14:53;;;;;;;36.17;17.98;;;;;;;1.21;100.00;99012.75;4996600;28;20046;-82
2021/11/13 05:17:20;;;;;;;36.88;18.30;;;;;;;1.20;100.00;99015.56;4996549;28;20054;-82
2021/11/13 05:19:47;;;;;;;32.65;17.13;;;;;;;1.20;100.00;99011.03;4996625;28;20485;-81
2021/11/13 05:22:14;;;;;;;32.58;18.40;;;;;;;1.32;100.00;99011.84;5000123;28;20383;-81
2021/11/13 05:24:41;;;;;;;33.70;16.85;;;;;;;1.32;100.00;99019.88;5008410;28;20058;-81
2021/11/13 05:27:08;;;;;;;28.17;15.95;;;;;;;1.20;100.00;99013.72;5007278;28;21538;-82
2021/11/13 05:29:36;;;;;;;31.67;17.38;;;;;;;1.38;100.00;99019.34;5009302;28;20042;-81
2021/11/13 05:32:03;;;;;;;30.90;16.75;;;;;;;1.35;100.00;99011.59;4997747;28;20401;-81
2021/11/13 05:34:30;;;;;;;31.40;17.63;;;;;;;1.34;100.00;98999.19;4997121;28;20054;-81
2021/11/13 05:36:57;;;;;;;29.23;15.75;;;;;;;1.26;100.00;99009.69;4996038;28;20402;-81
2021/11/13 05:39:24;;;;;;;28.27;15.77;;;;;;;1.22;100.00;99019.81;5004854;28;20119;-81
2021/11/13 05:41:51;;;;;;;31.13;17.42;;;;;;;1.24;100.00;99009.81;4998026;28;20100;-81
2021/11/13 05:44:17;;;;;;;29.73;17.13;;;;;;;1.23;100.00;99012.63;5015733;28;20046;-81
2021/11/13 05:46:46;;;;;;;31.17;15.43;;;;;;;1.26;100.00;99009.69;5000346;28;20042;-82
2021/11/13 05:49:13;;;;;;;32.22;18.77;;;;;;;1.26;100.00;98982.91;4996163;28;20121;-81
2021/11/13 05:51:39;;;;;;;29.48;16.88;;;;;;;1.32;100.00;98993.09;4996010;28;20051;-82
2021/11/13 05:54:06;;;;;;;36.22;16.20;;;;;;;1.42;100.00;99003.91;4995129;28;20054;-82
2021/11/13 05:56:33;;;;;;;33.20;16.48;;;;;;;1.47;100.00;98987.44;4995163;28;20101;-82
2021/11/13 05:59:00;;;;;;;31.73;17.15;;;;;;;1.45;100.00;99000.13;4996017;28;20081;-81
2021/11/13 06:01:26;;;;;;;32.10;16.25;;;;;;;1.49;100.00;98989.00;4995433;28;20066;-81
2021/11/13 06:03:55;;;;;;;26.35;16.05;;;;;;;1.42;100.00;98979.78;4995472;28;20046;-82
2021/11/13 06:06:21;;;;;;;28.08;15.95;;;;;;;1.36;100.00;98989.19;4995453;28;20050;-83
2021/11/13 06:08:48;;;;;;;24.52;14.30;;;;;;;1.37;100.00;98985.53;4995521;28;20105;-81
2021/11/13 06:11:15;;;;;;;24.75;14.68;;;;;;;1.37;100.00;98982.84;4995414;28;20046;-81
2021/11/13 06:13:42;;;;;;;22.92;14.10;;;;;;;1.32;100.00;98982.38;4995183;28;20097;-81
2021/11/13 06:16:09;;;;;;;24.95;13.70;;;;;;;1.38;100.00;98979.19;4994773;28;20101;-80
2021/11/13 06:18:36;;;;;;;23.33;13.00;;;;;;;1.39;100.00;98983.56;4994771;28;20053;-82
2021/11/13 06:21:09;;;;;;;24.08;14.45;;;;;;;1.40;100.00;98973.69;4977209;28;20074;-81
2021/11/13 06:23:38;;;;;;;23.42;13.50;;;;;;;1.44;100.00;98956.38;4987486;28;20042;-81
2021/11/13 06:26:06;;;;;;;20.42;13.15;;;;;;;1.53;100.00;98966.31;4995113;28;20050;-81
2021/11/13 06:28:33;;;;;;;21.55;13.13;;;;;;;1.52;100.00;98961.94;4995021;28;20059;-81
2021/11/13 06:31:00;;;;;;;24.05;13.82;;;;;;;1.45;100.00;98950.06;5005613;28;20131;-81
2021/11/13 06:33:27;;;;;;;21.55;12.75;;;;;;;1.49;100.00;98964.03;5014305;28;20046;-81
2021/11/13 06:35:54;;;;;;;21.00;12.18;;;;;;;1.48;100.00;98965.03;5005642;28;20114;-81
2021/11/13 06:38:22;;;;;;;20.27;12.25;;;;;;;1.44;100.00;98961.75;4993040;28;20058;-81
2021/11/13 06:40:49;;;;;;;21.05;12.50;;;;;;;1.62;100.00;98971.88;4994812;28;20078;-83
2021/11/13 06:43:16;;;;;;;20.73;11.18;;;;;;;1.65;100.00;98963.56;4977682;28;20109;-81
2021/11/13 06:45:43;;;;;;;17.23;11.57;;;;;;;1.49;100.00;98948.81;4977726;28;20101;-80
2021/11/13 06:48:10;;;;;;;18.70;11.23;;;;;;;1.60;100.00;98961.28;5008435;28;20128;-81
2021/11/13 06:50:37;;;;;;;22.52;12.10;;;;;;;1.62;100.00;98955.78;5014280;28;20057;-80
2021/11/13 06:53:05;;;;;;;18.70;11.63;;;;;;;1.67;100.00;98951.72;5004551;28;20381;-81
2021/11/13 06:55:35;;;;;;;18.10;10.65;;;;;;;1.67;100.00;98940.16;4993713;28;20545;-81
2021/11/13 06:58:02;;;;;;;22.75;11.20;;;;;;;1.76;100.00;98955.41;4994052;28;20077;-81
2021/11/13 07:00:29;;;;;;;18.02;10.82;;;;;;;1.81;100.00;98957.69;4994526;28;20101;-81
2021/11/13 07:02:59;;;;;;;20.23;11.48;;;;;;;1.84;100.00;98949.41;4994183;28;20097;-81
2021/11/13 07:05:27;;;;;;;17.48;11.27;;;;;;;1.79;100.00;98957.00;4994974;28;20054;-81
2021/11/13 07:07:54;;;;;;;20.75;11.68;;;;;;;1.85;100.00;98960.00;4994906;28;20128;-81
2021/11/13 07:10:21;;;;;;;19.45;10.60;;;;;;;1.83;100.00;98945.03;4993802;28;20117;-81
2021/11/13 07:12:49;;;;;;;19.02;11.88;;;;;;;2.00;100.00;98956.94;4994713;28;20626;-81
2021/11/13 07:15:19;;;;;;;18.00;11.15;;;;;;;2.20;100.00;98961.41;4994554;28;20108;-81
2021/11/13 07:17:47;;;;;;;20.05;11.38;;;;;;;2.18;100.00;98957.97;4994532;28;20050;-80
2021/11/13 07:20:15;;;;;;;19.27;11.18;;;;;;;2.19;100.00;98957.00;4994085;28;20054;-81
2021/11/13 07:22:42;;;;;;;16.15;10.02;;;;;;;2.19;100.00;98962.38;4976724;28;20100;-81
2021/11/13 07:25:13;;;;;;;19.65;11.15;;;;;;;2.18;100.00;98971.38;4994094;28;20070;-80
2021/11/13 07:27:40;;;;;;;15.23;9.30;;;;;;;2.11;100.00;98964.91;4974574;28;20043;-81
2021/11/13 07:30:09;;;;;;;17.77;10.70;;;;;;;2.07;100.00;98969.66;4974940;28;20054;-81
2021/11/13 07:32:36;;;;;;;19.73;10.55;;;;;;;2.13;100.00;98979.00;4980246;28;20089;-80
2021/11/13 07:35:04;;;;;;;14.95;9.80;;;;;;;2.15;100.00;98984.25;5013590;28;20499;-80
2021/11/13 07:37:31;;;;;;;15.90;10.18;;;;;;;2.15;100.00;98992.28;5013073;28;20061;-80
2021/11/13 07:39:58;;;;;;;16.90;10.00;;;;;;;2.19;100.00;98991.88;4994009;28;20105;-80
2021/11/13 07:42:25;;;;;;;16.52;10.30;;;;;;;2.17;100.00;98984.94;4993360;28;20409;-80
2021/11/13 07:44:52;;;;;;;16.38;10.23;;;;;;;2.38;100.00;98984.88;4994122;28;20466;-80
2021/11/13 07:47:20;;;;;;;15.27;9.93;;;;;;;2.31;100.00;98981.91;4986250;28;20054;-80
2021/11/13 07:49:47;;;;;;;15.63;10.43;;;;;;;2.47;100.00;98997.47;4993668;28;20113;-80
2021/11/13 07:52:14;;;;;;;17.63;10.23;;;;;;;2.52;100.00;99003.28;4993734;28;20057;-80
2021/11/13 07:54:40;;;;;;;18.52;10.45;;;;;;;2.51;100.00;99014.16;4996896;28;20486;-81
2021/11/13 07:57:08;;;;;;;17.67;9.75;;;;;;;2.54;100.00;99008.50;5011351;28;20049;-80
2021/11/13 07:59:35;;;;;;;15.85;11.32;;;;;;;2.76;100.00;99008.25;4991766;28;20056;-80
2021/11/13 08:02:02;;;;;;;16.55;10.63;;;;;;;2.76;100.00;99002.91;4993365;28;20100;-80
2021/11/13 08:04:31;;;;;;;20.55;10.95;;;;;;;2.91;100.00;98991.75;4997068;28;20050;-81
2021/11/13 08:06:57;;;;;;;19.30;11.30;;;;;;;2.91;100.00;98995.28;4993069;28;20475;-81
2021/11/13 08:09:24;;;;;;;20.33;12.52;;;;;;;2.99;100.00;98997.25;4995513;28;20058;-81
2021/11/13 08:11:51;;;;;;;19.05;10.57;;;;;;;3.04;100.00;98988.78;4995887;28;20057;-81
2021/11/13 08:14:17;;;;;;;17.88;11.27;;;;;;;3.08;100.00;98985.66;4992727;28;20046;-81
2021/11/13 08:16:44;;;;;;;18.38;11.77;;;;;;;3.26;100.00;98984.97;4991022;28;20101;-81
2021/11/13 08:19:11;;;;;;;17.88;10.73;;;;;;;3.33;100.00;98970.81;4992071;28;20054;-80
2021/11/13 08:21:39;;;;;;;16.77;9.88;;;;;;;3.28;100.00;98985.66;4991865;28;20533;-81
2021/11/13 08:24:06;;;;;;;16.77;10.23;;;;;;;3.41;100.00;98996.97;4991797;28;20097;-81
2021/11/13 08:26:33;;;;;;;15.13;10.35;;;;;;;3.32;100.00;98981.72;4992038;28;20139;-81
2021/11/13 08:28:59;;;;;;;15.88;10.15;;;;;;;3.35;100.00;98993.00;4992583;28;20047;-81
2021/11/13 08:31:26;;;;;;;17.75;9.98;;;;;;;3.48;100.00;98989.19;4990291;28;20152;-81
2021/11/13 08:33:53;;;;;;;17.17;10.63;;;;;;;3.46;100.00;98991.16;4990879;28;20109;-81
2021/11/13 08:36:20;;;;;;;18.38;11.30;;;;;;;3.52;100.00;98993.28;4991474;28;20043;-81
2021/11/13 08:38:48;;;;;;;14.77;9.82;;;;;;;3.58;100.00;98995.38;4992511;28;20062;-81
2021/11/13 08:41:15;;;;;;;16.75;11.38;;;;;;;3.50;100.00;98988.03;4995503;28;20142;-81
2021/11/13 08:43:42;;;;;;;19.27;12.75;;;;;;;3.52;100.00;99002.19;4995130;28;20108;-81
2021/11/13 08:46:09;;;;;;;22.38;13.45;;;;;;;3.49;100.00;99001.63;4995271;28;20100;-81
2021/11/13 08:48:36;;;;;;;19.13;12.38;;;;;;;3.45;100.00;99003.75;4994225;28;20074;-83
2021/11/13 08:51:03;;;;;;;21.67;13.07;;;;;;;3.39;100.00;99000.78;4994122;28;20050;-81
2021/11/13 08:53:30;;;;;;;19.88;11.98;;;;;;;3.40;100.00;99000.63;4994639;28;20050;-81
2021/11/13 08:55:59;;;;;;;18.55;11.63;;;;;;;3.32;100.00;99012.09;4995758;28;20104;-81
2021/11/13 08:58:25;;;;;;;17.45;12.20;;;;;;;3.26;100.00;99007.31;5004430;28;20450;-81
2021/11/13 09:00:56;;;;;;;18.73;11.55;;;;;;;3.29;100.00;99033.88;4999508;28;20046;-82
2021/11/13 09:03:26;;;;;;;17.67;11.38;;;;;;;3.28;100.00;99042.09;5008112;28;20070;-81
2021/11/13 09:05:54;;;;;;;21.23;11.88;;;;;;;3.29;100.00;99047.31;5006788;28;20188;-81
2021/11/13 09:08:24;;;;;;;18.13;10.98;;;;;;;3.33;100.00;99021.03;5003684;28;20046;-81
2021/11/13 09:10:51;;;;;;;22.50;12.10;;;;;;;3.48;100.00;99016.06;4994522;28;20050;-81
2021/11/13 09:13:22;;;;;;;21.05;12.05;;;;;;;3.66;100.00;99010.81;5007891;28;20104;-81
2021/11/13 09:15:49;;;;;;;19.48;11.38;;;;;;;3.62;100.00;99007.53;5002328;28;20398;-81
2021/11/13 09:18:16;;;;;;;21.33;11.55;;;;;;;3.81;100.00;98995.03;5009850;28;20077;-81
2021/11/13 09:20:44;;;;;;;18.08;11.70;;;;;;;3.84;100.00;99001.00;4993444;28;20058;-81
2021/11/13 09:23:13;;;;;;;21.00;12.15;;;;;;;3.95;100.00;98985.69;4993730;28;20050;-81
2021/11/13 09:25:40;;;;;;;20.23;11.52;;;;;;;3.97;100.00;98981.00;4994945;28;20482;-81
2021/11/13 09:28:07;;;;;;;22.52;13.20;;;;;;;3.99;100.00;98984.38;4995640;28;20050;-81
2021/11/13 09:30:37;;;;;;;18.95;11.25;;;;;;;3.95;100.00;98978.44;4993199;28;20058;-81
2021/11/13 09:33:05;;;;;;;16.77;10.85;;;;;;;4.19;100.00;98983.31;5003514;28;20116;-81
2021/11/13 09:35:33;;;;;;;20.25;12.02;;;;;;;4.34;100.00;98980.13;4994820;28;20050;-81
2021/11/13 09:38:04;;;;;;;17.60;11.18;;;;;;;4.25;100.00;98971.09;4998237;28;20049;-84
2021/11/13 09:40:31;;;;;;;17.50;10.68;;;;;;;4.45;100.00;98987.16;4996066;28;20060;-84
2021/11/13 09:43:01;;;;;;;15.88;10.18;;;;;;;4.54;100.00;98987.09;4995600;28;20046;-83
2021/11/13 09:45:30;;;;;;;19.77;10.82;;;;;;;4.79;100.00;98973.91;4995919;28;20097;-84
2021/11/13 09:48:02;;;;;;;17.25;10.05;;;;;;;4.80;100.00;98962.13;4995743;28;20061;-83
2021/11/13 09:50:33;;;;;;;18.08;9.90;;;;;;;5.06;100.00;98958.66;4976087;28;20085;-82
2021/11/13 09:53:02;;;;;;;13.15;8.85;;;;;;;5.33;100.00;98971.22;4975522;28;20058;-81
2021/11/13 09:55:29;;;;;;;13.18;8.65;;;;;;;5.54;100.00;98975.38;4986848;28;20069;-80
2021/11/13 09:57:56;;;;;;;13.20;7.85;;;;;;;5.76;100.00;98974.88;4992940;28;20081;-80
2021/11/13 10:00:26;;;;;;;16.35;7.97;;;;;;;5.96;100.00;98971.94;4992583;28;20058;-79
2021/11/13 10:02:54;;;;;;;14.65;8.20;;;;;;;5.85;100.00;98989.25;4991036;28;20050;-80
2021/11/13 10:05:23;;;;;;;12.38;8.20;;;;;;;5.75;100.00;98958.84;4993026;28;20046;-80
2021/11/13 10:07:50;;;;;;;13.27;8.27;;;;;;;5.92;100.00;98966.03;4993422;28;20290;-80
2021/11/13 10:10:28;;;;;;;14.15;8.68;;;;;;;6.03;100.00;98956.84;4996653;28;20050;-80
2021/11/13 10:12:55;;;;;;;14.02;7.93;;;;;;;5.96;100.00;98966.56;4983787;28;20064;-80
2021/11/13 10:15:29;;;;;;;12.95;8.35;;;;;;;6.01;100.00;98970.50;4994331;28;20056;-80
2021/11/13 10:18:11;;;;;;;12.90;8.30;;;;;;;6.08;100.00;98959.94;4993772;28;20146;-80
2021/11/13 10:20:42;;;;;;;12.65;8.60;;;;;;;6.10;100.00;98960.59;4993318;28;20054;-80
2021/11/13 10:23:09;;;;;;;11.63;7.97;;;;;;;6.22;100.00;98966.56;5000439;28;20054;-82
2021/11/13 10:25:36;;;;;;;14.35;7.55;;;;;;;6.33;100.00;98968.13;5013552;28;20054;-82
2021/11/13 10:28:11;;;;;;;11.65;8.07;;;;;;;6.40;100.00;98938.59;5007988;28;20073;-82
2021/11/13 10:30:39;;;;;;;14.07;8.00;;;;;;;6.57;100.00;98945.75;4998852;28;20055;-83
2021/11/13 10:33:06;;;;;;;11.02;6.38;;;;;;;6.54;100.00;98943.41;4992227;28;20134;-82
2021/11/13 10:35:43;;;;;;;10.98;6.75;;;;;;;6.42;100.00;98934.75;4993472;28;20050;-82
2021/11/13 10:38:15;;;;;;;16.58;7.07;;;;;;;6.40;100.00;98933.22;4993445;28;20046;-82
2021/11/13 10:40:53;;;;;;;10.60;6.75;;;;;;;6.46;100.00;98944.22;4992898;28;20081;-82
2021/11/13 10:43:20;;;;;;;13.07;6.68;;;;;;;6.48;100.00;98928.69;4993774;28;20486;-82
2021/11/13 10:46:06;;;;;;;10.02;7.18;;;;;;;6.46;100.00;98935.25;4991750;28;20058;-82
2021/11/13 10:48:37;;;;;;;11.68;6.60;;;;;;;6.47;100.00;98939.66;4992269;28;20125;-83
2021/11/13 10:51:21;;;;;;;10.35;6.75;;;;;;;6.52;100.00;98918.41;5002238;28;20046;-83
2021/11/13 10:53:53;;;;;;;11.07;7.28;;;;;;;6.58;100.00;98928.56;4992689;28;20475;-82
2021/11/13 10:56:22;;;;;;;13.52;7.47;;;;;;;6.69;100.00;98924.69;4992691;28;20095;-83
2021/11/13 10:58:56;;;;;;;12.13;7.72;;;;;;;6.78;100.00;98921.00;4992742;28;20526;-82
2021/11/13 11:01:34;;;;;;;13.50;8.32;;;;;;;7.06;100.00;98934.19;4994111;28;20093;-83
2021/11/13 11:04:06;;;;;;;15.88;9.15;;;;;;;6.99;100.00;98919.66;4993742;28;20050;-83
2021/11/13 11:06:38;;;;;;;14.25;9.18;;;;;;;6.92;100.00;98924.88;4984787;28;20050;-82
2021/11/13 11:09:28;;;;;;;13.35;8.88;;;;;;;7.00;100.00;98922.19;5002566;28;20069;-82
2021/11/13 11:11:57;;;;;;;14.68;9.02;;;;;;;7.00;100.00;98907.81;4992466;28;20442;-82
2021/11/13 11:14:26;;;;;;;13.07;8.63;;;;;;;7.04;100.00;98906.47;4993167;28;20074;-82
2021/11/13 11:17:04;;;;;;;12.10;7.82;;;;;;;7.16;100.00;98924.06;4992706;28;20046;-82
2021/11/13 11:19:33;;;;;;;13.50;7.25;;;;;;;7.21;100.00;98923.53;4992141;28;20058;-83
2021/11/13 11:22:08;;;;;;;14.40;8.18;;;;;;;7.28;100.00;98912.91;4991690;28;20057;-84
2021/11/13 11:24:41;;;;;;;16.77;9.82;;;;;;;7.35;100.00;98912.06;4992199;28;20046;-84